DE3MD TNCC-TNCA
Flight info
| Callsign | DE3MD |
|---|---|
| Flight time | 0h 44m |
| Altitude | 3000 |
| Route | ARUB1K ELUMO DCT DAVLA DCT BOMDA |
| Aircraft | BE36/L-SDGRY/S |
Departure
| Time | 2026-04-21 18:38 |
|---|---|
| Airport | Hato International Airport (TNCC) |
Arrival
| Time | 2026-04-21 19:22 |
|---|---|
| Airport | Queen Beatrix International Airport (TNCA) |
| Time | Latitude | Longitude | Altitude | Speed | Heading |
|---|---|---|---|---|---|
| 2026-04-21 18:19 | 12.18501 | -68.95430 | 38 ft | 0 kts | 108° |
| 2026-04-21 18:27 | 12.18501 | -68.95427 | 38 ft | 2 kts | 103° |
| 2026-04-21 18:27 | 12.18501 | -68.95426 | 38 ft | 0 kts | 102° |
| 2026-04-21 18:33 | 12.18500 | -68.95423 | 38 ft | 3 kts | 85° |
| 2026-04-21 18:33 | 12.18534 | -68.95434 | 38 ft | 10 kts | 275° |
| 2026-04-21 18:33 | 12.18594 | -68.95489 | 38 ft | 12 kts | 296° |
| 2026-04-21 18:34 | 12.18616 | -68.95573 | 38 ft | 10 kts | 285° |
| 2026-04-21 18:34 | 12.18630 | -68.95651 | 38 ft | 12 kts | 282° |
| 2026-04-21 18:34 | 12.18655 | -68.95757 | 38 ft | 18 kts | 283° |
| 2026-04-21 18:34 | 12.18687 | -68.95899 | 38 ft | 21 kts | 279° |
| 2026-04-21 18:35 | 12.18718 | -68.96057 | 38 ft | 22 kts | 281° |
| 2026-04-21 18:35 | 12.18747 | -68.96208 | 38 ft | 19 kts | 281° |
| 2026-04-21 18:35 | 12.18778 | -68.96344 | 38 ft | 21 kts | 281° |
| 2026-04-21 18:35 | 12.18817 | -68.96526 | 38 ft | 28 kts | 282° |
| 2026-04-21 18:36 | 12.18857 | -68.96725 | 38 ft | 19 kts | 284° |
| 2026-04-21 18:36 | 12.18898 | -68.96827 | 38 ft | 12 kts | 355° |
| 2026-04-21 18:36 | 12.19009 | -68.96807 | 37 ft | 18 kts | 18° |
| 2026-04-21 18:36 | 12.19040 | -68.96660 | 37 ft | 35 kts | 99° |
| 2026-04-21 18:37 | 12.18968 | -68.96278 | 38 ft | 73 kts | 100° |
| 2026-04-21 18:37 | 12.18847 | -68.95722 | 133 ft | 76 kts | 94° |
| 2026-04-21 18:37 | 12.18689 | -68.95223 | 281 ft | 88 kts | 96° |
| 2026-04-21 18:37 | 12.18630 | -68.94492 | 389 ft | 103 kts | 90° |
| 2026-04-21 18:38 | 12.18583 | -68.93713 | 559 ft | 110 kts | 89° |
| 2026-04-21 18:38 | 12.18544 | -68.92886 | 756 ft | 114 kts | 89° |
| 2026-04-21 18:38 | 12.18512 | -68.92081 | 956 ft | 115 kts | 89° |
| 2026-04-21 18:38 | 12.18487 | -68.91277 | 1161 ft | 115 kts | 88° |
| 2026-04-21 18:39 | 12.18466 | -68.90469 | 1365 ft | 115 kts | 88° |
| 2026-04-21 18:39 | 12.18451 | -68.89645 | 1573 ft | 114 kts | 87° |
| 2026-04-21 18:39 | 12.18443 | -68.88854 | 1773 ft | 114 kts | 87° |
| 2026-04-21 18:39 | 12.18439 | -68.88085 | 1963 ft | 114 kts | 86° |
| 2026-04-21 18:40 | 12.18440 | -68.87281 | 2159 ft | 114 kts | 86° |
| 2026-04-21 18:40 | 12.18436 | -68.86481 | 2378 ft | 112 kts | 88° |
| 2026-04-21 18:40 | 12.18436 | -68.85693 | 2545 ft | 114 kts | 86° |
| 2026-04-21 18:40 | 12.18389 | -68.84882 | 2679 ft | 123 kts | 105° |
| 2026-04-21 18:41 | 12.17812 | -68.84200 | 2866 ft | 131 kts | 138° |
| 2026-04-21 18:41 | 12.17079 | -68.83738 | 3221 ft | 119 kts | 137° |
| 2026-04-21 18:41 | 12.16340 | -68.83319 | 3312 ft | 134 kts | 156° |
| 2026-04-21 18:41 | 12.15416 | -68.83096 | 3513 ft | 134 kts | 159° |
| 2026-04-21 18:42 | 12.14563 | -68.82843 | 3812 ft | 129 kts | 170° |
| 2026-04-21 18:42 | 12.13563 | -68.83000 | 3863 ft | 145 kts | 188° |
| 2026-04-21 18:42 | 12.12565 | -68.83282 | 4067 ft | 144 kts | 194° |
| 2026-04-21 18:42 | 12.11609 | -68.83666 | 4253 ft | 144 kts | 197° |
| 2026-04-21 18:43 | 12.10664 | -68.84072 | 4451 ft | 144 kts | 200° |
| 2026-04-21 18:43 | 12.09812 | -68.84624 | 4534 ft | 153 kts | 226° |
| 2026-04-21 18:43 | 12.09120 | -68.85310 | 4889 ft | 139 kts | 221° |
| 2026-04-21 18:43 | 12.08435 | -68.86033 | 5060 ft | 142 kts | 225° |
| 2026-04-21 18:44 | 12.07808 | -68.86805 | 5227 ft | 144 kts | 234° |
| 2026-04-21 18:44 | 12.07331 | -68.87700 | 5388 ft | 145 kts | 239° |
| 2026-04-21 18:44 | 12.06893 | -68.88570 | 5553 ft | 145 kts | 243° |
| 2026-04-21 18:44 | 12.06495 | -68.89489 | 5726 ft | 144 kts | 246° |
| 2026-04-21 18:45 | 12.06147 | -68.90441 | 5869 ft | 142 kts | 249° |
| 2026-04-21 18:45 | 12.05775 | -68.91405 | 5901 ft | 148 kts | 248° |
| 2026-04-21 18:45 | 12.05457 | -68.92368 | 6079 ft | 143 kts | 252° |
| 2026-04-21 18:45 | 12.05173 | -68.93349 | 5944 ft | 163 kts | 250° |
| 2026-04-21 18:46 | 12.04771 | -68.94501 | 5776 ft | 175 kts | 252° |
| 2026-04-21 18:46 | 12.04458 | -68.95679 | 5957 ft | 164 kts | 256° |
| 2026-04-21 18:46 | 12.04259 | -68.96751 | 6179 ft | 152 kts | 260° |
| 2026-04-21 18:46 | 12.04121 | -68.97804 | 6219 ft | 155 kts | 264° |
| 2026-04-21 18:47 | 12.04205 | -68.99018 | 5775 ft | 181 kts | 284° |
| 2026-04-21 18:47 | 12.04578 | -69.00253 | 5585 ft | 177 kts | 292° |
| 2026-04-21 18:47 | 12.05099 | -69.01305 | 5053 ft | 193 kts | 302° |
| 2026-04-21 18:47 | 12.05829 | -69.02425 | 4508 ft | 201 kts | 307° |
| 2026-04-21 18:48 | 12.06501 | -69.03597 | 4223 ft | 186 kts | 297° |
| 2026-04-21 18:48 | 12.06946 | -69.04791 | 3886 ft | 178 kts | 292° |
| 2026-04-21 18:48 | 12.07279 | -69.05866 | 3666 ft | 166 kts | 289° |
| 2026-04-21 18:48 | 12.07625 | -69.06939 | 3350 ft | 161 kts | 294° |
| 2026-04-21 18:49 | 12.07986 | -69.07722 | 3737 ft | 94 kts | 304° |
| 2026-04-21 18:49 | 12.08304 | -69.08394 | 3349 ft | 116 kts | 297° |
| 2026-04-21 18:49 | 12.08496 | -69.08894 | 3219 ft | 114 kts | 293° |
| 2026-04-21 18:49 | 12.08844 | -69.09776 | 3150 ft | 103 kts | 300° |
| 2026-04-21 18:50 | 12.09166 | -69.10397 | 3105 ft | 103 kts | 306° |
| 2026-04-21 18:50 | 12.09572 | -69.11034 | 3058 ft | 102 kts | 312° |
| 2026-04-21 18:50 | 12.09993 | -69.11579 | 3017 ft | 102 kts | 317° |
| 2026-04-21 18:50 | 12.10449 | -69.12080 | 2975 ft | 101 kts | 320° |
| 2026-04-21 18:51 | 12.10919 | -69.12608 | 2956 ft | 110 kts | 311° |
| 2026-04-21 18:51 | 12.11195 | -69.13388 | 2992 ft | 118 kts | 281° |
| 2026-04-21 18:51 | 12.11382 | -69.14078 | 3027 ft | 98 kts | 296° |
| 2026-04-21 18:51 | 12.11672 | -69.14777 | 3058 ft | 120 kts | 298° |
| 2026-04-21 18:52 | 12.12056 | -69.15545 | 3164 ft | 132 kts | 302° |
| 2026-04-21 18:52 | 12.12551 | -69.16385 | 3327 ft | 139 kts | 306° |
| 2026-04-21 18:52 | 12.13105 | -69.17200 | 3509 ft | 141 kts | 309° |
| 2026-04-21 18:52 | 12.13590 | -69.18051 | 3700 ft | 143 kts | 301° |
| 2026-04-21 18:53 | 12.14095 | -69.18864 | 3942 ft | 140 kts | 307° |
| 2026-04-21 18:53 | 12.14676 | -69.19669 | 4112 ft | 143 kts | 309° |
| 2026-04-21 18:53 | 12.15237 | -69.20555 | 4234 ft | 151 kts | 302° |
| 2026-04-21 18:53 | 12.15696 | -69.21482 | 4365 ft | 155 kts | 295° |
| 2026-04-21 18:54 | 12.16080 | -69.22503 | 4507 ft | 157 kts | 289° |
| 2026-04-21 18:54 | 12.16363 | -69.23567 | 4652 ft | 159 kts | 283° |
| 2026-04-21 18:54 | 12.16547 | -69.24693 | 4809 ft | 160 kts | 277° |
| 2026-04-21 18:54 | 12.16620 | -69.25798 | 4910 ft | 164 kts | 271° |
| 2026-04-21 18:55 | 12.16610 | -69.26543 | 5047 ft | 161 kts | 267° |
| 2026-04-21 18:55 | 12.16481 | -69.28022 | 5233 ft | 161 kts | 265° |
| 2026-04-21 18:55 | 12.16535 | -69.29156 | 5226 ft | 171 kts | 278° |
| 2026-04-21 18:55 | 12.16734 | -69.30266 | 5510 ft | 150 kts | 283° |
| 2026-04-21 18:56 | 12.17016 | -69.31405 | 4707 ft | 199 kts | 288° |
| 2026-04-21 18:56 | 12.17506 | -69.32640 | 4641 ft | 193 kts | 300° |
| 2026-04-21 18:56 | 12.18240 | -69.33828 | 4178 ft | 202 kts | 307° |
| 2026-04-21 18:56 | 12.18914 | -69.35043 | 3913 ft | 194 kts | 300° |
| 2026-04-21 18:57 | 12.19421 | -69.36236 | 3990 ft | 175 kts | 290° |
| 2026-04-21 18:57 | 12.19740 | -69.37463 | 3617 ft | 189 kts | 285° |
| 2026-04-21 18:57 | 12.20081 | -69.38779 | 3549 ft | 175 kts | 290° |
| 2026-04-21 18:57 | 12.20350 | -69.39900 | 3646 ft | 160 kts | 280° |
| 2026-04-21 18:58 | 12.20492 | -69.40992 | 3548 ft | 162 kts | 279° |
| 2026-04-21 18:58 | 12.20665 | -69.42123 | 3460 ft | 160 kts | 283° |
| 2026-04-21 18:58 | 12.20922 | -69.43203 | 3485 ft | 152 kts | 284° |
| 2026-04-21 18:58 | 12.21109 | -69.44209 | 3652 ft | 139 kts | 284° |
| 2026-04-21 18:59 | 12.21349 | -69.45053 | 3897 ft | 122 kts | 288° |
| 2026-04-21 18:59 | 12.21573 | -69.45946 | 3836 ft | 132 kts | 286° |
| 2026-04-21 18:59 | 12.21793 | -69.46896 | 3820 ft | 139 kts | 285° |
| 2026-04-21 18:59 | 12.22003 | -69.47859 | 3858 ft | 142 kts | 284° |
| 2026-04-21 19:00 | 12.22234 | -69.48870 | 3902 ft | 145 kts | 286° |
| 2026-04-21 19:00 | 12.22443 | -69.49874 | 3995 ft | 146 kts | 279° |
| 2026-04-21 19:00 | 12.22541 | -69.50928 | 4008 ft | 152 kts | 275° |
| 2026-04-21 19:00 | 12.22783 | -69.51967 | 3991 ft | 157 kts | 292° |
| 2026-04-21 19:01 | 12.23179 | -69.53006 | 3965 ft | 161 kts | 289° |
| 2026-04-21 19:01 | 12.23495 | -69.54115 | 3862 ft | 169 kts | 287° |
| 2026-04-21 19:01 | 12.23769 | -69.55280 | 3827 ft | 169 kts | 284° |
| 2026-04-21 19:01 | 12.23992 | -69.56461 | 3806 ft | 165 kts | 282° |
| 2026-04-21 19:02 | 12.24268 | -69.57501 | 3818 ft | 159 kts | 289° |
| 2026-04-21 19:02 | 12.24548 | -69.58589 | 3809 ft | 155 kts | 285° |
| 2026-04-21 19:02 | 12.24789 | -69.59648 | 3746 ft | 155 kts | 287° |
| 2026-04-21 19:02 | 12.25094 | -69.60705 | 3734 ft | 152 kts | 288° |
| 2026-04-21 19:03 | 12.25341 | -69.61709 | 3783 ft | 148 kts | 284° |
| 2026-04-21 19:03 | 12.25565 | -69.62759 | 3786 ft | 148 kts | 285° |
| 2026-04-21 19:03 | 12.25777 | -69.63768 | 3826 ft | 145 kts | 281° |
| 2026-04-21 19:03 | 12.25966 | -69.64775 | 3829 ft | 145 kts | 285° |
| 2026-04-21 19:04 | 12.26228 | -69.65744 | 3822 ft | 146 kts | 289° |
| 2026-04-21 19:04 | 12.26488 | -69.66727 | 3940 ft | 137 kts | 285° |
| 2026-04-21 19:04 | 12.26751 | -69.67628 | 3945 ft | 140 kts | 297° |
| 2026-04-21 19:04 | 12.27145 | -69.68531 | 3910 ft | 150 kts | 292° |
| 2026-04-21 19:05 | 12.27465 | -69.69535 | 3872 ft | 156 kts | 288° |
| 2026-04-21 19:05 | 12.27738 | -69.70653 | 3845 ft | 159 kts | 283° |
| 2026-04-21 19:05 | 12.27992 | -69.71738 | 3766 ft | 164 kts | 287° |
| 2026-04-21 19:05 | 12.28392 | -69.72730 | 3835 ft | 155 kts | 302° |
| 2026-04-21 19:06 | 12.28924 | -69.73684 | 3430 ft | 184 kts | 297° |
| 2026-04-21 19:06 | 12.29346 | -69.74981 | 3048 ft | 193 kts | 284° |
| 2026-04-21 19:06 | 12.29543 | -69.76249 | 2968 ft | 183 kts | 283° |
| 2026-04-21 19:06 | 12.29867 | -69.77325 | 3260 ft | 148 kts | 298° |
| 2026-04-21 19:07 | 12.30291 | -69.78172 | 3277 ft | 148 kts | 298° |
| 2026-04-21 19:07 | 12.30701 | -69.79148 | 3307 ft | 146 kts | 294° |
| 2026-04-21 19:07 | 12.31060 | -69.80070 | 3339 ft | 147 kts | 292° |
| 2026-04-21 19:07 | 12.31277 | -69.81150 | 2946 ft | 175 kts | 279° |
| 2026-04-21 19:08 | 12.31512 | -69.82315 | 2906 ft | 171 kts | 293° |
| 2026-04-21 19:08 | 12.31931 | -69.83370 | 2882 ft | 167 kts | 296° |
| 2026-04-21 19:08 | 12.32299 | -69.84505 | 2960 ft | 158 kts | 288° |
| 2026-04-21 19:08 | 12.32575 | -69.85532 | 2973 ft | 157 kts | 292° |
| 2026-04-21 19:09 | 12.32931 | -69.86530 | 2979 ft | 155 kts | 294° |
| 2026-04-21 19:09 | 12.33307 | -69.87524 | 2965 ft | 157 kts | 294° |
| 2026-04-21 19:09 | 12.33712 | -69.88641 | 2853 ft | 165 kts | 289° |
| 2026-04-21 19:09 | 12.33992 | -69.89688 | 2984 ft | 155 kts | 290° |
| 2026-04-21 19:10 | 12.34326 | -69.90687 | 2980 ft | 155 kts | 293° |
| 2026-04-21 19:10 | 12.34645 | -69.91719 | 2976 ft | 157 kts | 287° |
| 2026-04-21 19:10 | 12.34958 | -69.92784 | 2953 ft | 158 kts | 295° |
| 2026-04-21 19:10 | 12.35366 | -69.93861 | 2889 ft | 161 kts | 292° |
| 2026-04-21 19:11 | 12.35659 | -69.94877 | 3012 ft | 152 kts | 288° |
| 2026-04-21 19:11 | 12.35974 | -69.95854 | 2983 ft | 155 kts | 293° |
| 2026-04-21 19:11 | 12.36349 | -69.96888 | 2961 ft | 158 kts | 292° |
| 2026-04-21 19:11 | 12.36702 | -69.97988 | 2921 ft | 162 kts | 286° |
| 2026-04-21 19:12 | 12.36961 | -69.99116 | 2734 ft | 174 kts | 285° |
| 2026-04-21 19:12 | 12.37301 | -70.00243 | 2636 ft | 177 kts | 294° |
| 2026-04-21 19:12 | 12.37739 | -70.01386 | 2614 ft | 174 kts | 292° |
| 2026-04-21 19:12 | 12.38175 | -70.02520 | 2738 ft | 161 kts | 298° |
| 2026-04-21 19:13 | 12.38733 | -70.03414 | 2743 ft | 157 kts | 311° |
| 2026-04-21 19:13 | 12.39359 | -70.04285 | 2710 ft | 160 kts | 310° |
| 2026-04-21 19:13 | 12.40016 | -70.05130 | 2550 ft | 165 kts | 314° |
| 2026-04-21 19:13 | 12.40700 | -70.06091 | 2378 ft | 169 kts | 307° |
| 2026-04-21 19:14 | 12.41331 | -70.07050 | 2331 ft | 162 kts | 309° |
| 2026-04-21 19:14 | 12.41946 | -70.07925 | 2227 ft | 158 kts | 310° |
| 2026-04-21 19:14 | 12.42549 | -70.08741 | 2128 ft | 155 kts | 313° |
| 2026-04-21 19:14 | 12.43152 | -70.09547 | 2127 ft | 147 kts | 312° |
| 2026-04-21 19:15 | 12.43788 | -70.10414 | 1980 ft | 148 kts | 314° |
| 2026-04-21 19:15 | 12.44414 | -70.11095 | 2021 ft | 137 kts | 323° |
| 2026-04-21 19:15 | 12.45126 | -70.11685 | 1971 ft | 141 kts | 329° |
| 2026-04-21 19:15 | 12.45875 | -70.12262 | 1935 ft | 143 kts | 330° |
| 2026-04-21 19:16 | 12.46740 | -70.12787 | 1961 ft | 137 kts | 341° |
| 2026-04-21 19:16 | 12.47569 | -70.13071 | 1951 ft | 130 kts | 355° |
| 2026-04-21 19:16 | 12.48399 | -70.13212 | 1735 ft | 125 kts | 360° |
| 2026-04-21 19:16 | 12.49200 | -70.13257 | 1601 ft | 118 kts | 4° |
| 2026-04-21 19:17 | 12.50713 | -70.13234 | 1579 ft | 103 kts | 24° |
| 2026-04-21 19:17 | 12.51236 | -70.12897 | 1606 ft | 91 kts | 43° |
| 2026-04-21 19:17 | 12.51623 | -70.12444 | 1616 ft | 85 kts | 57° |
| 2026-04-21 19:18 | 12.51935 | -70.11925 | 1487 ft | 94 kts | 63° |
| 2026-04-21 19:18 | 12.52139 | -70.11263 | 1382 ft | 96 kts | 80° |
| 2026-04-21 19:18 | 12.52141 | -70.10603 | 1196 ft | 105 kts | 92° |
| 2026-04-21 19:18 | 12.52046 | -70.09888 | 1002 ft | 103 kts | 98° |
| 2026-04-21 19:19 | 12.51924 | -70.09222 | 853 ft | 93 kts | 98° |
| 2026-04-21 19:19 | 12.51754 | -70.08556 | 624 ft | 95 kts | 100° |
| 2026-04-21 19:19 | 12.51591 | -70.07968 | 582 ft | 81 kts | 99° |
| 2026-04-21 19:19 | 12.51502 | -70.07441 | 504 ft | 78 kts | 91° |
| 2026-04-21 19:20 | 12.51381 | -70.06911 | 398 ft | 81 kts | 96° |
| 2026-04-21 19:20 | 12.51212 | -70.06347 | 341 ft | 81 kts | 101° |
| 2026-04-21 19:20 | 12.51070 | -70.05849 | 427 ft | 69 kts | 99° |
| 2026-04-21 19:20 | 12.50992 | -70.05360 | 403 ft | 72 kts | 97° |
| 2026-04-21 19:21 | 12.50909 | -70.04869 | 396 ft | 80 kts | 96° |
| 2026-04-21 19:21 | 12.50792 | -70.04309 | 361 ft | 86 kts | 103° |
| 2026-04-21 19:21 | 12.50657 | -70.03717 | 252 ft | 82 kts | 97° |
| 2026-04-21 19:21 | 12.50540 | -70.03182 | 155 ft | 71 kts | 102° |
| 2026-04-21 19:22 | 12.50427 | -70.02720 | 42 ft | 55 kts | 103° |
| 2026-04-21 19:22 | 12.50347 | -70.02389 | 24 ft | 43 kts | 103° |
| 2026-04-21 19:22 | 12.50272 | -70.02078 | 29 ft | 44 kts | 103° |
| 2026-04-21 19:22 | 12.50189 | -70.01729 | 39 ft | 49 kts | 100° |
| 2026-04-21 19:23 | 12.50112 | -70.01438 | 48 ft | 22 kts | 137° |
| 2026-04-21 19:23 | 12.49967 | -70.01437 | 47 ft | 8 kts | 146° |
| 2026-04-21 19:23 | 12.49945 | -70.01373 | 49 ft | 7 kts | 99° |
| 2026-04-21 19:23 | 12.49896 | -70.01354 | 49 ft | 2 kts | 161° |
| 2026-04-21 19:24 | 12.49888 | -70.01327 | 50 ft | 2 kts | 102° |
| 2026-04-21 19:24 | 12.49887 | -70.01326 | 50 ft | 0 kts | 97° |